This is the latest recevied weather packets stored in our database for station/object DB0BQ-11. If no packets are shown the sender has not sent any weather packets the latest 10 day(s).
| Time | Temp. | Humidity | Pressure | Rain* | Wind** | Luminosity | Snow |
|---|---|---|---|---|---|---|---|
| 1777720225 | 23.89° C | 42% | 1018.1 hPa | - | - | - | - |
| 1777716632 | 23.33° C | 40% | 1018.5 hPa | - | - | - | - |
| 1777713621 | 21.67° C | 43% | 1018.9 hPa | - | - | - | - |
| 1777713019 | 21.67° C | 42% | 1019 hPa | - | - | - | - |
| 1777708222 | 20.56° C | 39% | 1019 hPa | - | - | - | - |
| 1777704027 | 17.22° C | 48% | 1019.2 hPa | - | - | - | - |
| 1777695055 | 8.89° C | 77% | 1019.5 hPa | - | - | - | - |
| 1777691422 | 11.11° C | 67% | 1019.7 hPa | - | - | - | - |
| 1777688431 | 10.56° C | 67% | 1020 hPa | - | - | - | - |
| 1777684818 | 10° C | 73% | 1020.6 hPa | - | - | - | - |
| 1777683072 | 10° C | 71% | 1020.9 hPa | - | - | - | - |
| 1777680623 | 10.56° C | 71% | 1021.1 hPa | - | - | - | - |
| 1777677632 | 11.11° C | 69% | 1021.4 hPa | - | - | - | - |
| 1777675826 | 11.11° C | 68% | 1021.5 hPa | - | - | - | - |
| 1777670467 | 13.89° C | 57% | 1021.7 hPa | - | - | - | - |
| 1777669222 | 14.44° C | 54% | 1021.9 hPa | - | - | - | - |
| 1777668620 | 15° C | 52% | 1021.8 hPa | - | - | - | - |
| 1777668038 | 15.56° C | 50% | 1021.9 hPa | - | - | - | - |
| 1777666833 | 16.67° C | 45% | 1021.9 hPa | - | - | - | - |
| 1777659628 | 23.33° C | 26% | 1021.8 hPa | - | - | - | - |
| 1777659026 | 23.33° C | 25% | 1021.8 hPa | - | - | - | - |
| 1777656617 | 25° C | 24% | 1021.6 hPa | - | - | - | - |
| 1777654830 | 25° C | 23% | 1021.7 hPa | - | - | - | - |
| 1777653626 | 25° C | 23% | 1021.7 hPa | - | - | - | - |
| 1777651217 | 25° C | 23% | 1022.1 hPa | - | - | - | - |
* Rain since midnight (hover to see other rain measurements)
** Current wind speed in m/s (hover to see current wind gust speed)